Latest Weather Observations for Deniliquin

IDN60801

Issued at 4:42 pm EST Thursday 18 July 2019 (issued every 10 minutes, with the page automatically refreshed every 10 minutes)

About weather observations | Map of weather stations | Latest weather observations for NSW | Other Formats
Station Details ID: 074258 Name: DENILIQUIN AIRPORT AWS Lat: -35.56 Lon: 144.95 Height: 94.0 m
Data from the previous 72 hours. | See also: Recent months at Deniliquin
Date/Time
EST
Temp
°C
App
Temp
°C
Dew
Point
°C
Rel
Hum
%
Delta-T
°C
Wind Press
QNH
hPa
Press
MSL
hPa
Rain since
9am
mm
Dir  Spd
km/h
Gust
km/h
Spd
kts
Gust
kts
18/04:30pm 11.4 7.2 5.5 67 2.7 W 17 20 9 11 1019.0 1019.2 0.0
18/04:00pm 12.0 7.8 5.9 66 2.9 W 17 22 9 12 1018.7 1018.9 0.0
18/03:30pm 12.1 8.3 5.9 66 2.9 WNW 15 19 8 10 1018.5 1018.7 0.0
18/03:00pm 12.6 9.6 5.8 63 3.2 NNW 11 15 6 8 1018.5 1018.7 0.0
18/02:30pm 12.8 11.0 7.0 68 2.8 NNW 6 19 3 10 1018.6 1018.8 0.0
18/02:00pm 11.5 8.9 6.2 70 2.5 NW 9 15 5 8 1018.8 1019.0 0.0
18/01:30pm 11.4 9.5 6.9 74 2.2 NNE 6 11 3 6 1018.8 1019.0 0.0
18/01:00pm 10.8 9.2 8.6 86 1.1 W 7 17 4 9 1019.6 1019.8 0.0
18/12:30pm 9.2 6.3 8.1 93 0.5 W 13 19 7 10 1020.3 1020.5 0.0
18/12:00pm 9.4 7.0 8.6 95 0.4 W 11 17 6 9 1020.5 1020.7 0.0
18/11:30am 8.9 5.8 8.8 99 0.0 W 15 20 8 11 1021.1 1021.3 0.0
18/11:00am 8.9 5.8 8.9 100 0.0 NW 15 20 8 11 1021.3 1021.5 0.0
18/10:30am 7.8 - - - - WNW 17 20 9 11 1021.5 1021.7 0.0
18/10:00am 7.4 - - - - WNW 15 20 8 11 1021.4 1021.6 0.0
18/09:30am 7.3 - - - - WNW 15 20 8 11 1021.2 1021.4 0.0
18/09:00am 7.4 - - - - WNW 17 20 9 11 1021.2 1021.4 1.4
18/08:30am 7.1 - - - - NW 15 19 8 10 1020.9 1021.1 1.4
18/08:00am 6.9 - - - - WNW 15 20 8 11 1020.2 1020.4 1.4
18/07:30am 7.0 - - - - NW 11 17 6 9 1020.0 1020.2 1.4
18/07:00am 6.8 - - - - WNW 15 19 8 10 1019.6 1019.8 1.4
18/06:30am 6.8 - - - - WNW 13 19 7 10 1019.0 1019.2 1.4
18/06:00am 7.1 - - - - WNW 7 11 4 6 1018.7 1018.9 1.4
18/05:30am 7.3 - - - - W 9 13 5 7 1018.5 1018.7 1.2
18/05:00am 7.3 - - - - WSW 13 17 7 9 1018.5 1018.7 1.2
18/04:30am 8.0 - - - - WSW 17 22 9 12 1018.9 1019.1 1.2
18/04:00am 8.1 - - - - WSW 19 22 10 12 1018.9 1019.1 1.2
18/03:30am 8.1 - - - - W 19 24 10 13 1018.8 1019.0 1.2
18/03:00am 8.4 - - - - W 19 24 10 13 1018.9 1019.1 1.2
18/02:30am 7.7 - - - - W 17 20 9 11 1018.9 1019.1 1.2
18/02:00am 7.6 - - - - W 13 17 7 9 1018.9 1019.1 1.2
18/01:30am 8.5 - - - - W 17 20 9 11 1018.8 1019.0 1.2
18/01:00am 8.4 - - - - WNW 17 22 9 12 1018.8 1019.0 1.2
18/12:30am 8.1 - - - - WNW 15 19 8 10 1018.8 1019.0 1.2
18/12:00am 8.4 - - - - W 19 24 10 13 1018.6 1018.8 1.2
 
Date/Time
EST
Temp
°C
App
Temp
°C
Dew
Point
°C
Rel
Hum
%
Delta-T
°C
Wind Press
QNH
hPa
Press
MSL
hPa
Rain since
9am
mm
Dir  Spd
km/h
Gust
km/h
Spd
kts
Gust
kts
17/11:30pm 9.0 - - - - W 19 24 10 13 1018.5 1018.7 1.2
17/11:00pm 9.6 - - - - WNW 20 24 11 13 1018.5 1018.7 1.2
17/10:30pm 9.8 - - - - WNW 20 24 11 13 1018.2 1018.4 1.2
17/10:00pm 9.8 - - - - WNW 20 28 11 15 1018.0 1018.2 1.2
17/09:30pm 10.1 - - - - WNW 22 28 12 15 1017.9 1018.0 1.2
17/09:00pm 10.2 - - - - WNW 19 28 10 15 1017.9 1018.0 1.2
17/08:30pm 9.9 - - - - WNW 22 28 12 15 1017.7 1017.8 1.2
17/08:00pm 9.7 - - - - WNW 22 28 12 15 1018.0 1018.2 1.2
17/07:30pm 9.5 - - - - WNW 19 24 10 13 1017.8 1017.9 1.0
17/07:00pm 9.5 - - - - NW 19 24 10 13 1017.4 1017.5 1.0
17/06:30pm 9.7 - - - - WNW 19 24 10 13 1017.3 1017.4 1.0
17/06:00pm 10.1 - - - - W 26 35 14 19 1017.1 1017.2 1.0
17/05:41pm 10.4 - - - - W 32 52 17 28 1017.2 1017.3 1.0
17/05:30pm 10.5 - - - - W 20 32 11 17 1017.3 1017.4 0.4
17/05:00pm 11.2 6.8 10.4 95 0.4 W 24 35 13 19 1017.0 1017.1 0.0
17/04:30pm 11.8 7.9 10.9 94 0.5 WNW 22 30 12 16 1016.9 1017.0 0.0
17/04:00pm 11.1 - - - - WNW 20 28 11 15 1017.0 1017.1 0.0
17/03:30pm 11.2 5.6 10.1 93 0.6 WNW 30 43 16 23 1017.2 1017.3 0.0
17/03:00pm 12.4 7.9 10.1 86 1.2 WNW 24 33 13 18 1017.0 1017.1 0.0
17/02:30pm 12.4 7.2 8.9 79 1.8 WNW 26 37 14 20 1017.3 1017.4 0.0
17/02:00pm 12.4 5.4 8.3 76 2.0 WNW 35 48 19 26 1017.5 1017.6 0.0
17/01:30pm 12.8 6.2 8.5 75 2.2 WNW 33 43 18 23 1017.6 1017.7 0.0
17/01:00pm 12.6 7.8 8.7 77 2.0 NW 24 33 13 18 1018.3 1018.5 0.0
17/12:30pm 12.5 7.1 7.8 73 2.3 NW 26 37 14 20 1018.9 1019.1 0.0
17/12:00pm 12.9 8.2 7.8 71 2.5 NW 22 30 12 16 1019.7 1019.9 0.0
17/11:30am 12.4 8.2 8.3 76 2.0 NW 20 26 11 14 1020.2 1020.4 0.0
17/11:00am 11.8 6.6 7.1 73 2.3 NNW 24 30 13 16 1020.6 1020.8 0.0
17/10:30am 11.1 7.2 7.2 77 1.9 NNW 17 20 9 11 1020.9 1021.1 0.0
17/10:00am 10.5 7.3 7.0 79 1.7 NNW 13 17 7 9 1021.1 1021.3 0.0
17/09:30am 9.6 6.7 6.7 82 1.4 N 11 15 6 8 1021.3 1021.5 0.0
17/09:00am 9.1 5.8 6.4 83 1.2 N 13 15 7 8 1021.6 1021.8 0.0
17/08:30am 8.7 5.8 6.7 87 0.9 N 11 13 6 7 1021.6 1021.8 0.0
17/08:00am 8.4 5.5 6.7 89 0.8 N 11 13 6 7 1021.6 1021.8 0.0
17/07:30am 7.8 4.9 6.7 93 0.5 NNW 11 13 6 7 1021.7 1021.9 0.0
17/07:00am 7.5 4.6 6.6 94 0.4 NNW 11 13 6 7 1021.7 1021.9 0.0
17/06:30am 8.3 5.1 6.8 90 0.7 NW 13 17 7 9 1021.8 1022.0 0.0
17/06:00am 8.3 5.6 7.5 95 0.4 WNW 11 15 6 8 1021.9 1022.1 0.0
17/05:30am 8.4 - - - - WNW 11 13 6 7 1022.0 1022.2 0.0
17/05:00am 8.6 - - - - W 15 20 8 11 1022.0 1022.2 0.0
17/04:30am 8.5 - - - - W 17 22 9 12 1022.0 1022.2 0.0
17/04:00am 9.2 - - - - W 20 33 11 18 1021.9 1022.1 0.0
17/03:30am 9.7 5.8 9.4 98 0.1 W 20 30 11 16 1022.2 1022.4 0.0
17/03:00am 10.3 6.7 8.4 88 0.9 W 17 26 9 14 1022.3 1022.5 0.0
17/02:30am 10.4 7.5 9.6 95 0.4 W 15 20 8 11 1022.2 1022.4 0.0
17/02:00am 10.3 - - - - WNW 13 19 7 10 1022.5 1022.7 0.0
17/01:30am 10.3 - - - - WNW 13 17 7 9 1022.8 1023.0 0.0
17/01:00am 10.2 - - - - W 17 22 9 12 1023.0 1023.2 0.0
17/12:30am 10.0 - - - - WNW 13 19 7 10 1023.2 1023.4 0.0
17/12:00am 9.5 - - - - WNW 13 15 7 8 1023.5 1023.7 0.0
 
Date/Time
EST
Temp
°C
App
Temp
°C
Dew
Point
°C
Rel
Hum
%
Delta-T
°C
Wind Press
QNH
hPa
Press
MSL
hPa
Rain since
9am
mm
Dir  Spd
km/h
Gust
km/h
Spd
kts
Gust
kts
16/11:30pm 8.7 - - - - WNW 9 13 5 7 1023.7 1023.9 0.0
16/11:00pm 7.2 - - - - W 11 13 6 7 1023.9 1024.1 0.0
16/10:30pm 8.4 5.6 8.4 100 0.0 W 13 17 7 9 1024.0 1024.2 0.0
16/10:00pm 8.6 5.8 8.5 99 0.0 W 13 17 7 9 1023.8 1024.0 0.0
16/09:30pm 10.1 6.9 8.4 89 0.8 W 15 17 8 9 1024.0 1024.2 0.0
16/09:00pm 10.5 7.1 7.7 83 1.3 W 15 19 8 10 1024.3 1024.5 0.0
16/08:30pm 11.9 8.0 7.2 73 2.3 W 17 24 9 13 1024.3 1024.5 0.0
16/08:00pm 12.1 8.2 7.2 72 2.4 W 17 22 9 12 1024.4 1024.6 0.0
16/07:30pm 12.2 8.0 7.5 73 2.3 W 19 26 10 14 1024.4 1024.6 0.0
16/07:00pm 12.1 8.1 8.4 78 1.8 W 19 24 10 13 1024.1 1024.3 0.0
16/06:30pm 11.9 9.7 9.3 84 1.3 W 11 15 6 8 1024.0 1024.2 0.0
16/06:00pm 11.9 9.3 9.5 85 1.2 WSW 13 15 7 8 1023.9 1024.1 0.0
16/05:30pm 12.0 8.9 8.8 81 1.6 WSW 15 19 8 10 1023.7 1023.9 0.0
16/05:00pm 12.4 9.4 9.1 80 1.7 WSW 15 19 8 10 1023.7 1023.9 0.0
16/04:30pm 12.7 8.8 8.8 77 2.0 WSW 19 24 10 13 1023.6 1023.8 0.0
16/04:00pm 13.0 8.5 8.7 75 2.2 WSW 22 26 12 14 1023.5 1023.7 0.0
16/03:30pm 13.2 9.3 8.7 74 2.3 WSW 19 24 10 13 1023.6 1023.8 0.0
16/03:00pm 13.4 9.2 8.3 71 2.5 WSW 20 24 11 13 1023.5 1023.7 0.0
16/02:30pm 13.1 7.7 8.2 72 2.4 WSW 26 33 14 18 1023.4 1023.6 0.0
16/02:00pm 13.6 8.0 7.2 65 3.1 WSW 26 37 14 20 1023.6 1023.8 0.0
16/01:30pm 13.7 7.9 7.9 68 2.9 WSW 28 39 15 21 1023.7 1023.9 0.0
16/01:00pm 13.4 8.5 9.8 79 1.8 W 26 37 14 20 1023.9 1024.1 0.0
16/12:30pm 13.4 8.3 10.6 83 1.5 W 28 37 15 20 1024.2 1024.4 0.0
16/12:00pm 12.9 7.7 10.3 84 1.3 W 28 39 15 21 1024.7 1024.9 0.0
16/11:30am 12.3 7.7 11.0 92 0.7 W 26 32 14 17 1025.1 1025.3 0.0
16/11:00am 11.4 7.7 11.4 100 0.0 W 22 30 12 16 1025.5 1025.7 0.0
16/10:30am 11.0 - - - - W 22 32 12 17 1025.7 1025.9 0.0
16/10:00am 10.6 - - - - W 24 30 13 16 1025.4 1025.6 0.0
16/09:30am 10.3 - - - - W 22 28 12 15 1025.3 1025.5 0.0
16/09:00am 10.1 - - - - W 22 30 12 16 1025.1 1025.3 0.0
16/08:30am 9.8 - - - - W 20 28 11 15 1025.0 1025.2 0.0
16/08:00am 9.3 - - - - WSW 15 20 8 11 1024.9 1025.1 0.0
16/07:30am 9.2 - - - - W 20 26 11 14 1024.7 1024.9 0.0
16/07:00am 9.1 - - - - W 20 26 11 14 1024.3 1024.5 0.0
16/06:30am 8.9 - - - - W 17 24 9 13 1024.1 1024.3 0.0
16/06:00am 8.8 - - - - W 20 24 11 13 1023.9 1024.1 0.0
16/05:30am 9.0 - - - - W 22 32 12 17 1023.7 1023.9 0.0
16/05:00am 8.6 - - - - W 19 28 10 15 1023.5 1023.7 0.0
16/04:30am 8.1 - - - - W 17 20 9 11 1023.6 1023.8 0.0
16/04:00am 8.3 - - - - W 17 22 9 12 1023.7 1023.9 0.0
16/03:30am 8.3 - - - - WNW 17 20 9 11 1023.8 1024.0 0.0
16/03:00am 8.1 - - - - WNW 15 19 8 10 1023.9 1024.1 0.0
16/02:30am 8.4 - - - - WNW 17 22 9 12 1024.0 1024.2 0.0
16/02:00am 8.7 - - - - WNW 17 20 9 11 1024.2 1024.4 0.0
16/01:30am 9.2 - - - - WNW 19 24 10 13 1024.3 1024.5 0.0
16/01:00am 9.2 - - - - WNW 17 20 9 11 1024.6 1024.8 0.0
16/12:30am 9.5 - - - - WNW 17 20 9 11 1024.8 1025.0 0.0
16/12:00am 9.9 - - - - WNW 17 20 9 11 1025.1 1025.3 0.0
 
Date/Time
EST
Temp
°C
App
Temp
°C
Dew
Point
°C
Rel
Hum
%
Delta-T
°C
Wind Press
QNH
hPa
Press
MSL
hPa
Rain since
9am
mm
Dir  Spd
km/h
Gust
km/h
Spd
kts
Gust
kts
15/11:30pm 10.3 7.2 10.3 100 0.0 W 17 22 9 12 1025.4 1025.6 0.0
15/11:00pm 10.5 7.4 10.2 98 0.2 W 17 20 9 11 1025.3 1025.5 0.0
15/10:30pm 10.7 7.6 10.2 97 0.3 W 17 22 9 12 1025.4 1025.6 0.0
15/10:00pm 10.3 7.1 10.1 99 0.1 WNW 17 20 9 11 1025.5 1025.7 0.0
15/09:30pm 10.7 7.5 10.1 96 0.3 WNW 17 22 9 12 1025.3 1025.5 0.0
15/09:00pm 10.7 8.0 10.4 98 0.2 WNW 15 20 8 11 1025.4 1025.6 0.0
15/08:30pm 10.9 7.7 10.0 94 0.5 WNW 17 24 9 13 1025.4 1025.6 0.0
15/08:00pm 11.0 7.5 10.1 94 0.5 WNW 19 24 10 13 1025.3 1025.5 0.0
15/07:30pm 11.1 8.3 10.0 93 0.6 W 15 20 8 11 1025.1 1025.3 0.0
15/07:00pm 11.1 8.3 10.0 93 0.6 W 15 19 8 10 1024.9 1025.1 0.0
15/06:30pm 11.3 8.0 9.6 89 0.9 W 17 24 9 13 1024.6 1024.8 0.0
15/06:00pm 11.5 8.5 9.2 86 1.2 W 15 19 8 10 1024.6 1024.8 0.0
15/05:30pm 11.5 8.1 9.1 85 1.2 W 17 24 9 13 1024.3 1024.5 0.0
15/05:00pm 11.7 8.2 8.9 83 1.4 W 17 22 9 12 1024.1 1024.3 0.0

Other formats

Comma delimited format used in spreadsheet applications
http://www.bom.gov.au/fwo/IDN60801/IDN60801.95869.axf

JavaScript Object Notation format (JSON) in row-major order
http://www.bom.gov.au/fwo/IDN60801/IDN60801.95869.json

Data quality

Most of these data are generated automatically and are frequently updated. Quality checks on data are not normally performed. It is possible for incorrect values to appear. Refer to information at About Latest Weather Observations and please check the disclaimer before using these data.